createdAt,value
2022-08-14T00:01:50.244Z,67.12
2022-08-14T00:04:35.863Z,67.27
2022-08-14T00:07:09.245Z,67.42
2022-08-14T00:09:55.485Z,67.58
2022-08-14T00:12:24.847Z,67.65
2022-08-14T00:15:00.187Z,68.42
2022-08-14T00:17:26.822Z,68.42
2022-08-14T00:19:53.114Z,66.83
2022-08-14T00:22:44.143Z,67.07
2022-08-14T00:25:09.417Z,66.16
2022-08-14T00:27:38.003Z,66.88
2022-08-14T00:30:10.829Z,66.81
2022-08-14T00:32:51.977Z,66.93
2022-08-14T00:35:36.828Z,67.00
2022-08-14T00:38:10.338Z,66.82
2022-08-14T00:40:36.684Z,66.94
2022-08-14T00:43:03.278Z,66.81
2022-08-14T00:45:30.590Z,66.70
2022-08-14T00:47:58.361Z,67.69
2022-08-14T00:50:28.318Z,67.45
2022-08-14T00:52:55.895Z,67.24
2022-08-14T00:55:23.258Z,67.30
2022-08-14T00:58:10.000Z,67.63
2022-08-14T01:00:43.012Z,68.16
2022-08-14T01:03:19.102Z,68.05
2022-08-14T01:05:52.099Z,67.80
2022-08-14T01:08:20.632Z,68.01
2022-08-14T01:11:06.824Z,67.41
2022-08-14T01:13:43.639Z,67.76
2022-08-14T01:16:20.474Z,68.78
2022-08-14T01:19:13.339Z,68.23
2022-08-14T01:21:46.822Z,68.08
2022-08-14T01:24:15.311Z,68.90
2022-08-14T01:26:55.482Z,68.61
2022-08-14T01:29:48.639Z,69.49
2022-08-14T01:32:10.474Z,68.61
2022-08-14T01:35:19.762Z,69.07
2022-08-14T01:37:24.667Z,68.73
2022-08-14T01:39:54.437Z,68.90
2022-08-14T01:42:31.319Z,69.93
2022-08-14T01:45:12.722Z,69.55
2022-08-14T01:47:51.717Z,69.45
2022-08-14T01:50:29.529Z,68.73
2022-08-14T01:52:58.414Z,69.00
2022-08-14T01:55:32.919Z,68.99
2022-08-14T01:58:02.225Z,68.96
2022-08-14T02:00:48.273Z,69.17
2022-08-14T02:03:16.146Z,68.73
2022-08-14T02:05:43.267Z,68.96
2022-08-14T02:08:10.483Z,68.88
2022-08-14T02:10:46.076Z,69.91
2022-08-14T02:13:14.078Z,69.17
2022-08-14T02:15:43.776Z,69.28
2022-08-14T02:18:10.372Z,69.21
2022-08-14T02:20:38.599Z,68.70
2022-08-14T02:23:06.642Z,69.78
2022-08-14T02:25:35.898Z,69.09
2022-08-14T02:28:23.590Z,69.53
2022-08-14T02:30:52.559Z,69.30
2022-08-14T02:33:19.081Z,69.64
2022-08-14T02:35:52.799Z,69.53
2022-08-14T02:38:30.566Z,69.70
2022-08-14T02:41:01.465Z,69.78
2022-08-14T02:43:36.419Z,69.49
2022-08-14T02:46:03.937Z,69.45
2022-08-14T02:49:04.604Z,70.09
2022-08-14T02:51:22.621Z,69.34
2022-08-14T02:53:49.758Z,69.33
2022-08-14T02:56:30.127Z,69.96
2022-08-14T02:59:07.782Z,70.19
2022-08-14T03:01:43.484Z,69.58
2022-08-14T03:04:10.953Z,70.10
2022-08-14T03:06:57.724Z,70.94
2022-08-14T03:09:24.631Z,70.57
2022-08-14T03:11:52.131Z,70.23
2022-08-14T03:14:21.937Z,70.30
2022-08-14T03:16:50.984Z,70.43
2022-08-14T03:19:19.700Z,71.05
2022-08-14T03:21:46.390Z,71.03
2022-08-14T03:24:23.207Z,71.22
2022-08-14T03:26:56.083Z,71.49
2022-08-14T03:29:26.377Z,71.00
2022-08-14T03:31:53.241Z,72.00
2022-08-14T03:34:24.535Z,71.47
2022-08-14T03:37:39.165Z,71.84
2022-08-14T03:39:59.316Z,71.18
2022-08-14T03:42:36.042Z,70.54
2022-08-14T03:45:33.337Z,70.89
2022-08-14T03:47:58.486Z,71.33
2022-08-14T03:50:30.775Z,71.31
2022-08-14T03:53:01.952Z,70.95
2022-08-14T03:55:30.519Z,71.93
2022-08-14T03:57:57.241Z,72.67
2022-08-14T04:00:42.590Z,72.53
2022-08-14T04:03:10.638Z,73.32
2022-08-14T04:05:42.996Z,72.90
2022-08-14T04:08:29.217Z,72.65
2022-08-14T04:10:57.433Z,74.18
2022-08-14T04:13:24.853Z,74.58
2022-08-14T04:15:56.162Z,73.89
2022-08-14T04:18:29.512Z,73.99
2022-08-14T04:20:58.055Z,75.24
2022-08-14T04:23:29.357Z,74.22
2022-08-14T04:26:00.018Z,74.25
2022-08-14T04:29:07.370Z,74.06
2022-08-14T04:31:13.312Z,73.70
2022-08-14T04:33:41.975Z,73.97
2022-08-14T04:36:09.267Z,74.39
2022-08-14T04:39:00.758Z,74.71
2022-08-14T04:41:53.169Z,74.39
2022-08-14T04:44:36.145Z,73.89
2022-08-14T04:47:21.868Z,73.24
2022-08-14T04:49:57.331Z,73.35
2022-08-14T04:52:24.866Z,73.59
2022-08-14T04:54:51.814Z,74.50
2022-08-14T04:57:18.244Z,74.74
2022-08-14T04:59:45.695Z,74.79
2022-08-14T05:02:13.709Z,75.52
2022-08-14T05:04:45.240Z,74.68
2022-08-14T05:07:11.907Z,75.20
2022-08-14T05:09:38.876Z,73.95
2022-08-14T05:13:10.786Z,73.77
2022-08-14T05:15:00.737Z,73.89
2022-08-14T05:17:28.849Z,73.43
2022-08-14T05:21:04.878Z,73.51
2022-08-14T05:22:59.307Z,72.77
2022-08-14T05:25:25.692Z,72.54
2022-08-14T05:28:00.431Z,72.17
2022-08-14T05:30:27.012Z,71.64
2022-08-14T05:32:53.708Z,71.68
2022-08-14T05:35:20.609Z,71.22
2022-08-14T05:37:50.056Z,70.58
2022-08-14T05:40:16.681Z,71.39
2022-08-14T05:42:46.518Z,70.78
2022-08-14T05:45:19.952Z,70.60
2022-08-14T05:47:46.231Z,70.29
2022-08-14T05:50:19.027Z,70.28
2022-08-14T05:52:46.573Z,70.50
2022-08-14T05:55:13.016Z,70.74
2022-08-14T05:57:46.435Z,70.84
2022-08-14T06:00:13.261Z,70.88
2022-08-14T06:02:51.616Z,71.06
2022-08-14T06:05:23.395Z,71.34
2022-08-14T06:07:49.954Z,71.20
2022-08-14T06:10:16.605Z,70.73
2022-08-14T06:12:56.811Z,71.35
2022-08-14T06:15:27.640Z,71.63
2022-08-14T06:17:59.126Z,71.72
2022-08-14T06:20:26.460Z,71.88
2022-08-14T06:22:54.734Z,71.47
2022-08-14T06:25:22.937Z,71.09
2022-08-14T06:27:49.485Z,71.83
2022-08-14T06:30:17.963Z,70.21
2022-08-14T06:32:45.060Z,70.22
2022-08-14T06:35:13.596Z,71.20
2022-08-14T06:37:41.274Z,71.65
2022-08-14T06:40:08.399Z,71.87
2022-08-14T06:42:52.287Z,69.99
2022-08-14T06:45:21.133Z,70.03
2022-08-14T06:47:53.657Z,70.52
2022-08-14T06:50:21.673Z,70.24
2022-08-14T06:52:54.951Z,69.96
2022-08-14T06:55:25.781Z,70.11
2022-08-14T06:57:54.341Z,69.52
2022-08-14T07:00:26.570Z,69.80
2022-08-14T07:03:13.661Z,69.86
2022-08-14T07:05:57.636Z,69.67
2022-08-14T07:08:26.424Z,69.38
2022-08-14T07:10:58.302Z,69.76
2022-08-14T07:13:26.841Z,70.09
2022-08-14T07:15:55.293Z,69.90
2022-08-14T07:18:22.710Z,68.94
2022-08-14T07:20:49.374Z,69.54
2022-08-14T07:23:20.481Z,70.13
2022-08-14T07:25:48.111Z,69.67
2022-08-14T07:28:23.591Z,69.23
2022-08-14T07:30:51.936Z,68.43
2022-08-14T07:33:24.530Z,69.03
2022-08-14T07:35:58.261Z,67.89
2022-08-14T07:38:28.885Z,67.86
2022-08-14T07:41:02.554Z,67.28
2022-08-14T07:43:29.693Z,67.98
2022-08-14T07:45:56.005Z,66.42
2022-08-14T07:48:25.215Z,66.96
2022-08-14T07:50:52.282Z,66.31
2022-08-14T07:53:21.947Z,65.63
2022-08-14T07:56:00.470Z,66.21
2022-08-14T07:58:38.943Z,65.83
2022-08-14T08:01:19.000Z,65.58
2022-08-14T08:03:51.968Z,64.94
2022-08-14T08:06:26.797Z,64.56
2022-08-14T08:08:58.745Z,63.97
2022-08-14T08:11:30.091Z,63.22
2022-08-14T08:14:03.311Z,62.98
2022-08-14T08:16:30.331Z,63.21
2022-08-14T08:19:01.759Z,62.96
2022-08-14T08:21:33.357Z,62.62
2022-08-14T08:24:01.974Z,63.04
2022-08-14T08:26:30.813Z,62.58
2022-08-14T08:28:58.286Z,63.05
2022-08-14T08:31:25.167Z,61.59
2022-08-14T08:33:59.554Z,60.42
2022-08-14T08:36:25.873Z,60.63
2022-08-14T08:39:14.857Z,61.03
2022-08-14T08:41:49.445Z,59.57
2022-08-14T08:44:32.075Z,58.76
2022-08-14T08:47:03.585Z,57.56
2022-08-14T08:49:43.287Z,57.59
2022-08-14T08:52:25.080Z,56.98
2022-08-14T08:54:55.697Z,57.02
2022-08-14T08:57:22.106Z,56.27
2022-08-14T08:59:55.299Z,56.07
2022-08-14T09:02:26.082Z,56.44
2022-08-14T09:05:00.981Z,56.27
2022-08-14T09:07:27.343Z,56.11
2022-08-14T09:09:59.722Z,55.84
2022-08-14T09:12:32.460Z,55.59
2022-08-14T09:15:04.082Z,55.67
2022-08-14T09:17:39.227Z,55.97
2022-08-14T09:20:08.153Z,55.17
2022-08-14T09:22:47.631Z,55.25
2022-08-14T09:25:15.357Z,55.62
2022-08-14T09:27:41.669Z,54.74
2022-08-14T09:30:12.714Z,55.62
2022-08-14T09:33:10.941Z,55.87
2022-08-14T09:35:57.879Z,55.57
2022-08-14T09:38:43.066Z,54.20
2022-08-14T09:41:36.778Z,54.06
2022-08-14T09:44:21.163Z,54.26
2022-08-14T09:46:57.955Z,53.89
2022-08-14T09:49:32.537Z,53.42
2022-08-14T09:52:33.228Z,53.12
2022-08-14T09:54:54.183Z,52.93
2022-08-14T09:57:27.494Z,53.23
2022-08-14T09:59:54.880Z,52.80
2022-08-14T10:02:24.153Z,51.86
2022-08-14T10:05:00.440Z,52.88
2022-08-14T10:07:34.853Z,51.21
2022-08-14T10:10:02.517Z,50.94
2022-08-14T10:12:43.695Z,52.24
2022-08-14T10:15:16.789Z,51.58
2022-08-14T10:17:44.033Z,51.95
2022-08-14T10:20:40.865Z,51.33
2022-08-14T10:23:13.089Z,51.12
2022-08-14T10:26:01.828Z,50.61
2022-08-14T10:28:51.308Z,50.59
2022-08-14T10:31:44.832Z,50.86
2022-08-14T10:34:14.225Z,50.43
2022-08-14T10:36:47.755Z,50.12
2022-08-14T10:39:19.790Z,50.50
2022-08-14T10:41:49.329Z,50.96
2022-08-14T10:44:22.629Z,49.64
2022-08-14T10:47:37.878Z,49.90
2022-08-14T10:49:53.208Z,50.35
2022-08-14T10:52:21.988Z,49.99
2022-08-14T10:54:48.436Z,50.96
2022-08-14T10:57:30.275Z,51.01
2022-08-14T10:59:57.720Z,50.44
2022-08-14T11:02:44.580Z,49.58
2022-08-14T11:05:18.319Z,49.39
2022-08-14T11:07:51.026Z,48.91
2022-08-14T11:10:40.851Z,49.55
2022-08-14T11:13:10.084Z,48.62
2022-08-14T11:15:36.798Z,49.13
2022-08-14T11:18:04.429Z,49.69
2022-08-14T11:20:31.691Z,49.94
2022-08-14T11:23:00.846Z,50.28
2022-08-14T11:25:43.249Z,50.89
2022-08-14T11:28:14.517Z,51.02
2022-08-14T11:30:51.025Z,50.61
2022-08-14T11:33:24.578Z,50.38
2022-08-14T11:35:51.211Z,50.50
2022-08-14T11:38:21.271Z,50.95
2022-08-14T11:40:47.969Z,50.21
2022-08-14T11:43:14.993Z,50.44
2022-08-14T11:45:45.011Z,51.00
2022-08-14T11:49:04.167Z,50.61
2022-08-14T11:51:11.975Z,51.31
2022-08-14T11:53:42.145Z,50.99
2022-08-14T11:56:08.556Z,50.63
2022-08-14T11:58:38.422Z,49.99
2022-08-14T12:01:06.711Z,50.41
2022-08-14T12:03:46.002Z,48.67
2022-08-14T12:06:28.908Z,48.65
2022-08-14T12:09:01.074Z,48.39
2022-08-14T12:11:38.168Z,48.57
2022-08-14T12:14:13.462Z,48.98
2022-08-14T12:17:00.465Z,49.30
2022-08-14T12:19:29.030Z,49.32
2022-08-14T12:22:00.207Z,48.21
2022-08-14T12:24:35.892Z,47.28
2022-08-14T12:27:03.537Z,48.84
2022-08-14T12:29:29.974Z,48.21
2022-08-14T12:31:59.926Z,48.79
2022-08-14T12:34:30.753Z,47.64
2022-08-14T12:37:07.202Z,48.53
2022-08-14T12:39:40.225Z,49.23
2022-08-14T12:42:07.451Z,48.56
2022-08-14T12:44:35.462Z,47.69
2022-08-14T12:47:15.170Z,47.72
2022-08-14T12:49:49.537Z,47.81
2022-08-14T12:52:43.152Z,49.16
2022-08-14T12:55:20.849Z,48.91
2022-08-14T12:57:49.446Z,47.12
2022-08-14T13:00:22.794Z,46.36
2022-08-14T13:02:55.389Z,46.08
2022-08-14T13:05:23.616Z,46.14
2022-08-14T13:07:51.510Z,46.91
2022-08-14T13:10:46.892Z,46.80
2022-08-14T13:13:15.354Z,46.68
2022-08-14T13:15:45.250Z,46.92
2022-08-14T13:18:13.997Z,46.56
2022-08-14T13:20:51.469Z,46.22
2022-08-14T13:23:30.564Z,46.60
2022-08-14T13:25:59.281Z,46.51
2022-08-14T13:28:30.273Z,45.64
2022-08-14T13:31:00.645Z,45.13
2022-08-14T13:33:27.805Z,44.53
2022-08-14T13:35:55.114Z,44.46
2022-08-14T13:38:22.843Z,45.44
2022-08-14T13:40:55.194Z,44.49
2022-08-14T13:43:23.658Z,44.15
2022-08-14T13:46:00.673Z,45.53
2022-08-14T13:48:33.418Z,44.22
2022-08-14T13:51:04.461Z,44.08
2022-08-14T13:53:34.899Z,44.28
2022-08-14T13:56:04.525Z,43.00
2022-08-14T13:58:35.523Z,43.44
2022-08-14T14:01:02.178Z,43.83
2022-08-14T14:03:34.907Z,45.29
2022-08-14T14:06:02.423Z,44.48
2022-08-14T14:08:43.127Z,45.40
2022-08-14T14:11:10.691Z,46.46
2022-08-14T14:13:41.819Z,45.05
2022-08-14T14:16:14.813Z,44.88
2022-08-14T14:18:42.633Z,45.50
2022-08-14T14:21:09.249Z,46.36
2022-08-14T14:23:35.727Z,46.05
2022-08-14T14:26:02.565Z,45.06
2022-08-14T14:28:31.809Z,45.52
2022-08-14T14:31:05.840Z,45.92
2022-08-14T14:33:50.109Z,45.96
2022-08-14T14:36:27.861Z,46.29
2022-08-14T14:38:58.154Z,46.87
2022-08-14T14:41:26.158Z,46.22
2022-08-14T14:43:54.176Z,46.64
2022-08-14T14:46:21.831Z,46.82
2022-08-14T14:49:04.247Z,46.75
2022-08-14T14:51:32.771Z,46.26
2022-08-14T14:53:59.069Z,45.21
2022-08-14T14:56:47.980Z,45.69
2022-08-14T14:59:12.826Z,45.78
2022-08-14T15:01:39.653Z,45.50
2022-08-14T15:04:20.059Z,45.52
2022-08-14T15:06:48.106Z,45.62
2022-08-14T15:09:17.721Z,45.55
2022-08-14T15:11:45.619Z,45.56
2022-08-14T15:14:54.920Z,45.29
2022-08-14T15:16:59.159Z,44.52
2022-08-14T15:19:26.711Z,45.09
2022-08-14T15:21:54.010Z,44.32
2022-08-14T15:24:26.529Z,44.85
2022-08-14T15:26:53.798Z,45.51
2022-08-14T15:29:20.327Z,45.64
2022-08-14T15:31:46.649Z,45.43
2022-08-14T15:34:43.804Z,44.74
2022-08-14T15:37:05.886Z,44.86
2022-08-14T15:39:35.723Z,46.06
2022-08-14T15:42:14.224Z,45.00
2022-08-14T15:44:43.997Z,43.92
2022-08-14T15:47:28.134Z,43.22
2022-08-14T15:49:59.069Z,42.77
2022-08-14T15:52:32.996Z,41.86
2022-08-14T15:55:15.693Z,41.92
2022-08-14T15:58:02.004Z,42.00
2022-08-14T16:00:49.809Z,43.31
2022-08-14T16:03:18.022Z,43.11
2022-08-14T16:05:51.563Z,42.24
2022-08-14T16:08:26.601Z,43.37
2022-08-14T16:10:55.357Z,43.42
2022-08-14T16:13:41.535Z,42.63
2022-08-14T16:16:50.984Z,41.91
2022-08-14T16:19:07.421Z,42.63
2022-08-14T16:21:39.096Z,42.48
2022-08-14T16:24:05.806Z,42.23
2022-08-14T16:26:33.783Z,42.36
2022-08-14T16:29:06.293Z,42.55
2022-08-14T16:31:36.018Z,43.98
2022-08-14T16:34:44.117Z,44.00
2022-08-14T16:36:53.353Z,44.19
2022-08-14T16:39:20.910Z,44.65
2022-08-14T16:41:51.224Z,44.65
2022-08-14T16:44:21.552Z,44.40
2022-08-14T16:47:01.684Z,44.52
2022-08-14T16:49:50.514Z,44.93
2022-08-14T16:52:25.962Z,45.04
2022-08-14T16:55:04.136Z,45.49
2022-08-14T16:57:31.708Z,44.96
2022-08-14T17:00:07.357Z,44.85
2022-08-14T17:02:58.727Z,44.17
2022-08-14T17:05:26.989Z,44.27
2022-08-14T17:08:28.592Z,44.65
2022-08-14T17:10:50.820Z,44.33
2022-08-14T17:13:18.162Z,44.29
2022-08-14T17:16:04.553Z,44.72
2022-08-14T17:18:35.547Z,44.82
2022-08-14T17:21:19.397Z,44.91
2022-08-14T17:23:52.227Z,44.78
2022-08-14T17:26:32.329Z,45.12
2022-08-14T17:29:06.305Z,45.13
2022-08-14T17:31:58.695Z,44.99
2022-08-14T17:34:20.936Z,45.50
2022-08-14T17:36:54.411Z,44.91
2022-08-14T17:39:21.839Z,45.25
2022-08-14T17:42:01.703Z,44.69
2022-08-14T17:44:33.865Z,44.88
2022-08-14T17:47:13.362Z,45.14
2022-08-14T17:49:52.135Z,44.79
2022-08-14T17:52:34.824Z,44.79
2022-08-14T17:55:04.200Z,45.03
2022-08-14T17:57:35.389Z,44.95
2022-08-14T18:00:10.964Z,45.14
2022-08-14T18:02:37.973Z,45.84
2022-08-14T18:05:08.216Z,45.49
2022-08-14T18:08:33.227Z,45.45
2022-08-14T18:10:52.446Z,45.81
2022-08-14T18:13:10.766Z,46.18
2022-08-14T18:15:37.594Z,47.07
2022-08-14T18:18:06.704Z,46.69
2022-08-14T18:21:24.710Z,46.75
2022-08-14T18:23:24.387Z,46.92
2022-08-14T18:25:52.729Z,48.29
2022-08-14T18:28:51.634Z,49.22
2022-08-14T18:31:20.029Z,51.17
2022-08-14T18:33:54.177Z,52.83
2022-08-14T18:36:47.516Z,53.47
2022-08-14T18:39:32.636Z,53.00
2022-08-14T18:42:23.960Z,54.11
2022-08-14T18:44:52.866Z,53.50
2022-08-14T18:47:20.335Z,53.27
2022-08-14T18:49:53.266Z,53.81
2022-08-14T18:52:22.290Z,54.04
2022-08-14T18:54:59.383Z,53.64
2022-08-14T18:57:27.047Z,54.45
2022-08-14T19:00:25.306Z,54.01
2022-08-14T19:03:00.011Z,54.28
2022-08-14T19:05:47.496Z,54.22
2022-08-14T19:08:26.197Z,54.93
2022-08-14T19:11:04.020Z,54.74
2022-08-14T19:13:48.125Z,54.12
2022-08-14T19:16:23.310Z,54.84
2022-08-14T19:18:54.265Z,54.64
2022-08-14T19:21:26.985Z,55.12
2022-08-14T19:24:29.174Z,54.92
2022-08-14T19:27:11.618Z,54.68
2022-08-14T19:29:39.717Z,55.23
2022-08-14T19:32:26.317Z,55.04
2022-08-14T19:34:54.218Z,55.92
2022-08-14T19:37:47.338Z,55.32
2022-08-14T19:40:28.260Z,55.41
2022-08-14T19:42:54.720Z,55.84
2022-08-14T19:45:26.783Z,55.88
2022-08-14T19:47:53.615Z,56.37
2022-08-14T19:50:38.157Z,55.69
2022-08-14T19:53:17.588Z,55.90
2022-08-14T19:55:54.475Z,56.13
2022-08-14T19:58:29.985Z,57.07
2022-08-14T20:00:56.982Z,56.29
2022-08-14T20:03:24.941Z,57.68
2022-08-14T20:06:00.414Z,57.26
2022-08-14T20:09:05.186Z,58.20
2022-08-14T20:12:00.947Z,57.52
2022-08-14T20:14:28.288Z,57.81
2022-08-14T20:17:03.215Z,57.68
2022-08-14T20:19:37.871Z,58.60
2022-08-14T20:22:37.301Z,59.04
2022-08-14T20:24:55.015Z,59.31
2022-08-14T20:27:34.065Z,59.57
2022-08-14T20:30:35.289Z,59.31
2022-08-14T20:33:08.004Z,59.79
2022-08-14T20:35:44.273Z,59.60
2022-08-14T20:38:31.684Z,59.88
2022-08-14T20:40:58.483Z,59.95
2022-08-14T20:43:44.743Z,59.09
2022-08-14T20:46:16.283Z,59.64
2022-08-14T20:48:56.531Z,59.24
2022-08-14T20:51:24.750Z,59.71
2022-08-14T20:53:58.334Z,60.43
2022-08-14T20:56:28.608Z,59.85
2022-08-14T20:58:56.736Z,59.98
2022-08-14T21:01:23.224Z,60.75
2022-08-14T21:03:59.827Z,60.00
2022-08-14T21:07:23.557Z,60.09
2022-08-14T21:10:05.284Z,60.61
2022-08-14T21:12:34.917Z,60.33
2022-08-14T21:14:59.471Z,60.88
2022-08-14T21:17:27.000Z,60.00
2022-08-14T21:19:53.367Z,60.40
2022-08-14T21:22:19.758Z,61.14
2022-08-14T21:24:47.627Z,60.65
2022-08-14T21:27:20.316Z,60.65
2022-08-14T21:29:56.038Z,61.01
2022-08-14T21:32:50.465Z,60.70
2022-08-14T21:35:24.432Z,60.95
2022-08-14T21:37:52.369Z,61.93
2022-08-14T21:40:42.689Z,62.20
2022-08-14T21:43:07.329Z,62.02
2022-08-14T21:45:44.206Z,62.69
2022-08-14T21:48:19.099Z,63.22
2022-08-14T21:51:01.149Z,63.07
2022-08-14T21:53:34.137Z,63.26
2022-08-14T21:56:01.344Z,63.29
2022-08-14T21:58:52.921Z,63.30
2022-08-14T22:01:17.285Z,63.50
2022-08-14T22:03:46.930Z,63.65
2022-08-14T22:06:20.876Z,63.47
2022-08-14T22:08:55.629Z,63.79
2022-08-14T22:11:22.215Z,63.74
2022-08-14T22:13:49.001Z,64.17
2022-08-14T22:17:02.128Z,64.15
2022-08-14T22:19:03.313Z,64.98
2022-08-14T22:21:30.234Z,64.49
2022-08-14T22:23:57.526Z,65.00
2022-08-14T22:26:24.038Z,64.78
2022-08-14T22:28:59.094Z,64.90
2022-08-14T22:31:25.533Z,65.18
2022-08-14T22:34:02.910Z,65.05
2022-08-14T22:36:49.990Z,65.44
2022-08-14T22:39:39.954Z,65.82
2022-08-14T22:42:21.180Z,66.21
2022-08-14T22:44:49.155Z,66.06
2022-08-14T22:47:15.457Z,66.51
2022-08-14T22:50:32.235Z,66.17
2022-08-14T22:52:32.443Z,66.07
2022-08-14T22:55:00.154Z,66.28
2022-08-14T22:57:27.584Z,66.23
2022-08-14T23:00:05.966Z,66.20
2022-08-14T23:02:32.871Z,66.62
2022-08-14T23:05:01.490Z,66.23
2022-08-14T23:08:57.535Z,66.76
2022-08-14T23:10:32.789Z,66.61
2022-08-14T23:13:00.782Z,66.96
2022-08-14T23:15:29.830Z,66.74
2022-08-14T23:17:56.676Z,66.53
2022-08-14T23:20:23.235Z,66.52
2022-08-14T23:22:55.998Z,67.41
2022-08-14T23:25:56.945Z,67.33
2022-08-14T23:28:34.736Z,67.25
2022-08-14T23:30:58.263Z,67.64
2022-08-14T23:33:27.278Z,67.87
2022-08-14T23:35:59.470Z,68.27
2022-08-14T23:38:30.534Z,68.02
2022-08-14T23:40:58.331Z,68.13
2022-08-14T23:43:28.227Z,68.27
2022-08-14T23:45:57.588Z,67.78
2022-08-14T23:48:27.929Z,68.77
2022-08-14T23:50:55.092Z,68.65
2022-08-14T23:53:47.084Z,68.74
2022-08-14T23:56:33.354Z,69.42
2022-08-14T23:59:01.686Z,69.68
